sensor_id;sensor_type;location;lat;lon;timestamp;pressure;altitude;pressure_sealevel;temperature;humidity
21100;BME280;10708;50.824;4.408;2023-03-22T00:01:54;100057.88;;;10.58;100.00
21100;BME280;10708;50.824;4.408;2023-03-22T00:06:58;100063.25;;;10.55;100.00
21100;BME280;10708;50.824;4.408;2023-03-22T00:12:00;100057.19;;;10.53;100.00
21100;BME280;10708;50.824;4.408;2023-03-22T00:17:02;100046.84;;;10.48;100.00
21100;BME280;10708;50.824;4.408;2023-03-22T00:22:06;100037.47;;;10.43;100.00
21100;BME280;10708;50.824;4.408;2023-03-22T00:27:08;100042.72;;;10.43;100.00
21100;BME280;10708;50.824;4.408;2023-03-22T00:32:11;100024.41;;;10.40;100.00
21100;BME280;10708;50.824;4.408;2023-03-22T00:37:14;100011.34;;;10.38;100.00
21100;BME280;10708;50.824;4.408;2023-03-22T00:42:17;100005.34;;;10.34;100.00
21100;BME280;10708;50.824;4.408;2023-03-22T00:47:20;100001.94;;;10.32;100.00
21100;BME280;10708;50.824;4.408;2023-03-22T00:52:24;99996.66;;;10.32;100.00
21100;BME280;10708;50.824;4.408;2023-03-22T00:57:26;99986.06;;;10.34;100.00
21100;BME280;10708;50.824;4.408;2023-03-22T01:02:28;99986.25;;;10.29;100.00
21100;BME280;10708;50.824;4.408;2023-03-22T01:07:32;99977.72;;;10.24;100.00
21100;BME280;10708;50.824;4.408;2023-03-22T01:12:38;99966.41;;;10.22;100.00
21100;BME280;10708;50.824;4.408;2023-03-22T01:17:40;99956.72;;;10.23;100.00
21100;BME280;10708;50.824;4.408;2023-03-22T01:22:44;99945.47;;;10.19;100.00
21100;BME280;10708;50.824;4.408;2023-03-22T01:27:46;99939.41;;;10.17;100.00
21100;BME280;10708;50.824;4.408;2023-03-22T01:32:49;99930.78;;;10.14;100.00
21100;BME280;10708;50.824;4.408;2023-03-22T01:37:52;99929.94;;;10.13;100.00
21100;BME280;10708;50.824;4.408;2023-03-22T01:42:55;99929.88;;;10.15;100.00
21100;BME280;10708;50.824;4.408;2023-03-22T01:47:59;99914.09;;;10.15;100.00
21100;BME280;10708;50.824;4.408;2023-03-22T01:53:07;99917.56;;;10.15;100.00
21100;BME280;10708;50.824;4.408;2023-03-22T01:58:14;99916.66;;;10.16;100.00
21100;BME280;10708;50.824;4.408;2023-03-22T02:03:25;99920.34;;;10.12;100.00
21100;BME280;10708;50.824;4.408;2023-03-22T02:08:32;99906.31;;;10.12;100.00
21100;BME280;10708;50.824;4.408;2023-03-22T02:19:20;99891.44;;;10.11;100.00
21100;BME280;10708;50.824;4.408;2023-03-22T02:24:49;99888.56;;;10.17;100.00
21100;BME280;10708;50.824;4.408;2023-03-22T02:30:09;99889.97;;;10.25;100.00
21100;BME280;10708;50.824;4.408;2023-03-22T02:35:40;99882.63;;;10.32;100.00
21100;BME280;10708;50.824;4.408;2023-03-22T02:40:49;99869.22;;;10.38;100.00
21100;BME280;10708;50.824;4.408;2023-03-22T02:46:01;99857.59;;;10.42;100.00
21100;BME280;10708;50.824;4.408;2023-03-22T02:51:08;99847.06;;;10.42;100.00
21100;BME280;10708;50.824;4.408;2023-03-22T02:56:16;99836.53;;;10.42;100.00
21100;BME280;10708;50.824;4.408;2023-03-22T03:01:24;99831.41;;;10.39;100.00
21100;BME280;10708;50.824;4.408;2023-03-22T03:06:32;99831.56;;;10.36;100.00
21100;BME280;10708;50.824;4.408;2023-03-22T03:11:40;99836.13;;;10.32;100.00
21100;BME280;10708;50.824;4.408;2023-03-22T03:16:42;99828.47;;;10.28;100.00
21100;BME280;10708;50.824;4.408;2023-03-22T03:21:50;99845.41;;;10.21;100.00
21100;BME280;10708;50.824;4.408;2023-03-22T03:27:00;99833.50;;;10.12;100.00
21100;BME280;10708;50.824;4.408;2023-03-22T03:32:06;99844.31;;;10.06;100.00
21100;BME280;10708;50.824;4.408;2023-03-22T03:37:14;99840.97;;;10.03;100.00
21100;BME280;10708;50.824;4.408;2023-03-22T03:42:21;99832.44;;;9.97;100.00
21100;BME280;10708;50.824;4.408;2023-03-22T03:47:27;99841.25;;;9.96;100.00
21100;BME280;10708;50.824;4.408;2023-03-22T03:52:30;99835.19;;;9.94;100.00
21100;BME280;10708;50.824;4.408;2023-03-22T03:57:33;99824.81;;;9.91;100.00
21100;BME280;10708;50.824;4.408;2023-03-22T04:02:36;99830.13;;;9.90;100.00
21100;BME280;10708;50.824;4.408;2023-03-22T04:07:38;99819.84;;;9.85;100.00
21100;BME280;10708;50.824;4.408;2023-03-22T04:12:42;99827.91;;;9.81;100.00
21100;BME280;10708;50.824;4.408;2023-03-22T04:17:44;99822.00;;;9.76;100.00
21100;BME280;10708;50.824;4.408;2023-03-22T04:22:47;99822.94;;;9.75;100.00
21100;BME280;10708;50.824;4.408;2023-03-22T04:27:50;99823.84;;;9.74;100.00
21100;BME280;10708;50.824;4.408;2023-03-22T04:32:55;99815.84;;;9.77;100.00
21100;BME280;10708;50.824;4.408;2023-03-22T04:37:58;99826.25;;;9.78;100.00
21100;BME280;10708;50.824;4.408;2023-03-22T04:43:02;99832.25;;;9.82;100.00
21100;BME280;10708;50.824;4.408;2023-03-22T04:48:05;99820.81;;;9.83;100.00
21100;BME280;10708;50.824;4.408;2023-03-22T04:53:10;99821.59;;;9.85;100.00
21100;BME280;10708;50.824;4.408;2023-03-22T04:58:13;99826.00;;;9.84;100.00
21100;BME280;10708;50.824;4.408;2023-03-22T05:03:17;99831.19;;;9.86;100.00
21100;BME280;10708;50.824;4.408;2023-03-22T05:08:20;99822.41;;;9.87;100.00
21100;BME280;10708;50.824;4.408;2023-03-22T05:13:26;99822.53;;;9.84;100.00
21100;BME280;10708;50.824;4.408;2023-03-22T05:18:29;99821.78;;;9.80;100.00
21100;BME280;10708;50.824;4.408;2023-03-22T05:23:32;99823.63;;;9.78;100.00
21100;BME280;10708;50.824;4.408;2023-03-22T05:28:36;99830.53;;;9.81;100.00
21100;BME280;10708;50.824;4.408;2023-03-22T05:33:39;99832.31;;;9.80;100.00
21100;BME280;10708;50.824;4.408;2023-03-22T05:38:42;99838.44;;;9.81;100.00
21100;BME280;10708;50.824;4.408;2023-03-22T05:43:47;99841.91;;;9.81;100.00
21100;BME280;10708;50.824;4.408;2023-03-22T05:48:50;99843.44;;;9.87;100.00
21100;BME280;10708;50.824;4.408;2023-03-22T05:53:53;99840.88;;;9.85;100.00
21100;BME280;10708;50.824;4.408;2023-03-22T05:58:56;99838.38;;;9.82;100.00
21100;BME280;10708;50.824;4.408;2023-03-22T06:03:59;99838.25;;;9.85;100.00
21100;BME280;10708;50.824;4.408;2023-03-22T06:09:01;99840.81;;;9.87;100.00
21100;BME280;10708;50.824;4.408;2023-03-22T06:14:05;99839.94;;;9.86;100.00
21100;BME280;10708;50.824;4.408;2023-03-22T06:19:07;99833.84;;;9.86;100.00
21100;BME280;10708;50.824;4.408;2023-03-22T06:24:10;99833.09;;;9.82;100.00
21100;BME280;10708;50.824;4.408;2023-03-22T06:29:14;99822.53;;;9.84;100.00
21100;BME280;10708;50.824;4.408;2023-03-22T06:34:16;99824.28;;;9.83;100.00
21100;BME280;10708;50.824;4.408;2023-03-22T06:39:18;99825.66;;;9.92;100.00
21100;BME280;10708;50.824;4.408;2023-03-22T06:44:22;99829.72;;;9.99;100.00
21100;BME280;10708;50.824;4.408;2023-03-22T06:49:25;99822.56;;;10.03;100.00
21100;BME280;10708;50.824;4.408;2023-03-22T06:54:27;99831.09;;;10.08;100.00
21100;BME280;10708;50.824;4.408;2023-03-22T06:59:31;99827.41;;;10.12;100.00
21100;BME280;10708;50.824;4.408;2023-03-22T07:04:33;99829.81;;;10.16;100.00
21100;BME280;10708;50.824;4.408;2023-03-22T07:09:37;99823.25;;;10.26;100.00
21100;BME280;10708;50.824;4.408;2023-03-22T07:14:41;99822.59;;;10.40;100.00
21100;BME280;10708;50.824;4.408;2023-03-22T07:19:43;99818.59;;;10.50;100.00
21100;BME280;10708;50.824;4.408;2023-03-22T07:24:46;99822.00;;;10.71;100.00
21100;BME280;10708;50.824;4.408;2023-03-22T07:29:50;99828.03;;;10.92;100.00
21100;BME280;10708;50.824;4.408;2023-03-22T07:34:52;99812.63;;;11.19;100.00
21100;BME280;10708;50.824;4.408;2023-03-22T07:39:54;99806.06;;;11.27;100.00
21100;BME280;10708;50.824;4.408;2023-03-22T07:44:58;99804.50;;;11.40;100.00
21100;BME280;10708;50.824;4.408;2023-03-22T07:50:01;99810.59;;;11.58;100.00
21100;BME280;10708;50.824;4.408;2023-03-22T07:55:04;99837.91;;;11.74;100.00
21100;BME280;10708;50.824;4.408;2023-03-22T08:00:10;99850.56;;;11.68;100.00
21100;BME280;10708;50.824;4.408;2023-03-22T08:05:13;99846.13;;;11.51;100.00
21100;BME280;10708;50.824;4.408;2023-03-22T08:10:18;99843.50;;;11.51;100.00
21100;BME280;10708;50.824;4.408;2023-03-22T08:15:24;99836.66;;;11.64;100.00
21100;BME280;10708;50.824;4.408;2023-03-22T08:20:27;99831.91;;;11.71;100.00
21100;BME280;10708;50.824;4.408;2023-03-22T08:25:30;99836.53;;;11.85;100.00
21100;BME280;10708;50.824;4.408;2023-03-22T08:30:35;99833.25;;;11.97;100.00
21100;BME280;10708;50.824;4.408;2023-03-22T08:35:38;99824.53;;;12.28;100.00
21100;BME280;10708;50.824;4.408;2023-03-22T08:40:41;99821.72;;;12.62;100.00
21100;BME280;10708;50.824;4.408;2023-03-22T08:45:48;99824.88;;;12.69;100.00
21100;BME280;10708;50.824;4.408;2023-03-22T08:50:50;99820.63;;;12.66;100.00
21100;BME280;10708;50.824;4.408;2023-03-22T08:55:53;99811.25;;;12.61;100.00
21100;BME280;10708;50.824;4.408;2023-03-22T09:00:59;99808.44;;;12.64;100.00
21100;BME280;10708;50.824;4.408;2023-03-22T09:06:02;99805.38;;;12.55;100.00
21100;BME280;10708;50.824;4.408;2023-03-22T09:11:07;99806.66;;;12.64;100.00
21100;BME280;10708;50.824;4.408;2023-03-22T09:16:10;99809.09;;;12.83;100.00
21100;BME280;10708;50.824;4.408;2023-03-22T09:21:13;99807.41;;;12.82;100.00
21100;BME280;10708;50.824;4.408;2023-03-22T09:26:17;99797.59;;;12.84;100.00
21100;BME280;10708;50.824;4.408;2023-03-22T09:31:21;99802.94;;;12.98;100.00
21100;BME280;10708;50.824;4.408;2023-03-22T09:36:26;99809.09;;;12.83;100.00
21100;BME280;10708;50.824;4.408;2023-03-22T09:41:34;99803.84;;;12.67;100.00
21100;BME280;10708;50.824;4.408;2023-03-22T09:46:43;99806.22;;;12.40;100.00
21100;BME280;10708;50.824;4.408;2023-03-22T09:51:48;99814.13;;;12.25;100.00
21100;BME280;10708;50.824;4.408;2023-03-22T09:56:54;99819.72;;;12.18;100.00
21100;BME280;10708;50.824;4.408;2023-03-22T10:02:03;99816.34;;;12.16;100.00
21100;BME280;10708;50.824;4.408;2023-03-22T10:07:21;99817.50;;;12.11;100.00
21100;BME280;10708;50.824;4.408;2023-03-22T10:12:28;99820.97;;;11.96;100.00
21100;BME280;10708;50.824;4.408;2023-03-22T10:17:35;99805.78;;;11.83;100.00
21100;BME280;10708;50.824;4.408;2023-03-22T10:22:41;99804.69;;;11.70;100.00
21100;BME280;10708;50.824;4.408;2023-03-22T10:27:47;99809.59;;;11.61;100.00
21100;BME280;10708;50.824;4.408;2023-03-22T10:32:55;99813.97;;;11.44;100.00
21100;BME280;10708;50.824;4.408;2023-03-22T10:38:03;99796.09;;;11.50;100.00
21100;BME280;10708;50.824;4.408;2023-03-22T10:43:14;99798.06;;;11.46;100.00
21100;BME280;10708;50.824;4.408;2023-03-22T10:48:26;99824.44;;;11.46;100.00
21100;BME280;10708;50.824;4.408;2023-03-22T10:53:35;99808.91;;;11.40;100.00
21100;BME280;10708;50.824;4.408;2023-03-22T10:58:39;99800.94;;;11.41;100.00
21100;BME280;10708;50.824;4.408;2023-03-22T11:03:47;99778.56;;;11.48;100.00
21100;BME280;10708;50.824;4.408;2023-03-22T11:08:52;99767.59;;;11.73;100.00
21100;BME280;10708;50.824;4.408;2023-03-22T11:14:00;99792.63;;;11.99;100.00
21100;BME280;10708;50.824;4.408;2023-03-22T11:19:13;99780.41;;;12.14;100.00
21100;BME280;10708;50.824;4.408;2023-03-22T11:24:17;99783.47;;;12.06;100.00
21100;BME280;10708;50.824;4.408;2023-03-22T11:29:21;99779.78;;;11.93;100.00
21100;BME280;10708;50.824;4.408;2023-03-22T11:34:27;99784.28;;;11.91;100.00
21100;BME280;10708;50.824;4.408;2023-03-22T11:39:30;99779.44;;;11.99;100.00
21100;BME280;10708;50.824;4.408;2023-03-22T11:44:33;99781.13;;;12.00;100.00
21100;BME280;10708;50.824;4.408;2023-03-22T11:49:44;99783.50;;;11.89;100.00
21100;BME280;10708;50.824;4.408;2023-03-22T11:54:47;99784.34;;;11.90;100.00
21100;BME280;10708;50.824;4.408;2023-03-22T11:59:55;99776.56;;;12.04;100.00
21100;BME280;10708;50.824;4.408;2023-03-22T12:05:04;99772.06;;;12.22;100.00
21100;BME280;10708;50.824;4.408;2023-03-22T12:10:12;99765.41;;;12.30;100.00
21100;BME280;10708;50.824;4.408;2023-03-22T12:15:18;99754.88;;;12.46;100.00
21100;BME280;10708;50.824;4.408;2023-03-22T12:20:32;99741.66;;;12.46;100.00
21100;BME280;10708;50.824;4.408;2023-03-22T12:25:36;99753.94;;;12.47;100.00
21100;BME280;10708;50.824;4.408;2023-03-22T12:30:43;99769.41;;;12.53;100.00
21100;BME280;10708;50.824;4.408;2023-03-22T12:35:49;99766.34;;;12.29;100.00
21100;BME280;10708;50.824;4.408;2023-03-22T12:40:54;99758.84;;;12.22;100.00
21100;BME280;10708;50.824;4.408;2023-03-22T12:45:59;99761.34;;;12.25;100.00
21100;BME280;10708;50.824;4.408;2023-03-22T12:51:07;99761.50;;;12.22;100.00
21100;BME280;10708;50.824;4.408;2023-03-22T12:56:12;99760.09;;;11.99;100.00
21100;BME280;10708;50.824;4.408;2023-03-22T13:01:21;99757.53;;;11.81;100.00
21100;BME280;10708;50.824;4.408;2023-03-22T13:06:31;99758.06;;;11.71;100.00
21100;BME280;10708;50.824;4.408;2023-03-22T13:11:34;99766.16;;;11.68;100.00
21100;BME280;10708;50.824;4.408;2023-03-22T13:16:48;99747.00;;;11.64;100.00
21100;BME280;10708;50.824;4.408;2023-03-22T13:22:13;99737.31;;;11.65;100.00
21100;BME280;10708;50.824;4.408;2023-03-22T13:27:15;99736.09;;;11.70;100.00
21100;BME280;10708;50.824;4.408;2023-03-22T13:32:27;99735.97;;;11.73;100.00
21100;BME280;10708;50.824;4.408;2023-03-22T13:37:33;99737.13;;;11.85;100.00
21100;BME280;10708;50.824;4.408;2023-03-22T13:42:38;99736.13;;;11.88;100.00
21100;BME280;10708;50.824;4.408;2023-03-22T13:47:43;99735.16;;;11.89;100.00
21100;BME280;10708;50.824;4.408;2023-03-22T13:52:55;99732.63;;;11.87;100.00
21100;BME280;10708;50.824;4.408;2023-03-22T13:57:59;99737.03;;;11.69;100.00
21100;BME280;10708;50.824;4.408;2023-03-22T14:03:08;99740.16;;;11.60;100.00
21100;BME280;10708;50.824;4.408;2023-03-22T14:08:20;99731.59;;;11.57;100.00
21100;BME280;10708;50.824;4.408;2023-03-22T14:13:29;99733.38;;;11.56;100.00
21100;BME280;10708;50.824;4.408;2023-03-22T14:18:35;99720.25;;;11.55;100.00
21100;BME280;10708;50.824;4.408;2023-03-22T14:23:44;99721.13;;;11.71;100.00
21100;BME280;10708;50.824;4.408;2023-03-22T14:28:48;99704.94;;;11.78;100.00
21100;BME280;10708;50.824;4.408;2023-03-22T14:33:52;99704.69;;;11.83;100.00
21100;BME280;10708;50.824;4.408;2023-03-22T14:39:03;99697.97;;;11.77;100.00
21100;BME280;10708;50.824;4.408;2023-03-22T14:44:10;99704.19;;;11.76;100.00
21100;BME280;10708;50.824;4.408;2023-03-22T14:49:15;99703.34;;;11.76;100.00
21100;BME280;10708;50.824;4.408;2023-03-22T14:54:21;99705.88;;;11.77;100.00
21100;BME280;10708;50.824;4.408;2023-03-22T14:59:26;99698.97;;;11.75;100.00
21100;BME280;10708;50.824;4.408;2023-03-22T15:04:29;99696.72;;;11.67;100.00
21100;BME280;10708;50.824;4.408;2023-03-22T15:09:33;99687.69;;;11.56;100.00
21100;BME280;10708;50.824;4.408;2023-03-22T15:14:35;99689.63;;;11.52;100.00
21100;BME280;10708;50.824;4.408;2023-03-22T15:19:42;99692.69;;;11.44;100.00
21100;BME280;10708;50.824;4.408;2023-03-22T15:24:51;99698.09;;;11.41;100.00
21100;BME280;10708;50.824;4.408;2023-03-22T15:29:55;99684.41;;;11.35;100.00
21100;BME280;10708;50.824;4.408;2023-03-22T15:35:03;99690.28;;;11.40;100.00
21100;BME280;10708;50.824;4.408;2023-03-22T15:40:34;99689.50;;;11.38;100.00
21100;BME280;10708;50.824;4.408;2023-03-22T15:45:38;99687.72;;;11.38;100.00
21100;BME280;10708;50.824;4.408;2023-03-22T15:50:40;99691.06;;;11.42;100.00
21100;BME280;10708;50.824;4.408;2023-03-22T15:55:44;99679.81;;;11.38;100.00
21100;BME280;10708;50.824;4.408;2023-03-22T16:00:47;99685.19;;;11.37;100.00
21100;BME280;10708;50.824;4.408;2023-03-22T16:05:50;99683.28;;;11.39;100.00
21100;BME280;10708;50.824;4.408;2023-03-22T16:10:54;99671.91;;;11.38;100.00
21100;BME280;10708;50.824;4.408;2023-03-22T16:15:58;99672.84;;;11.37;100.00
21100;BME280;10708;50.824;4.408;2023-03-22T16:21:05;99661.13;;;11.43;100.00
21100;BME280;10708;50.824;4.408;2023-03-22T16:26:11;99650.41;;;11.46;100.00
21100;BME280;10708;50.824;4.408;2023-03-22T16:31:16;99656.56;;;11.46;100.00
21100;BME280;10708;50.824;4.408;2023-03-22T16:36:21;99641.03;;;11.40;100.00
21100;BME280;10708;50.824;4.408;2023-03-22T16:41:26;99640.38;;;11.37;100.00
21100;BME280;10708;50.824;4.408;2023-03-22T16:46:30;99629.28;;;11.30;100.00
21100;BME280;10708;50.824;4.408;2023-03-22T16:51:35;99625.72;;;11.31;100.00
21100;BME280;10708;50.824;4.408;2023-03-22T16:56:40;99624.72;;;11.34;100.00
21100;BME280;10708;50.824;4.408;2023-03-22T17:01:43;99633.41;;;11.36;100.00
21100;BME280;10708;50.824;4.408;2023-03-22T17:06:45;99627.19;;;11.37;100.00
21100;BME280;10708;50.824;4.408;2023-03-22T17:11:49;99634.25;;;11.36;100.00
21100;BME280;10708;50.824;4.408;2023-03-22T17:16:51;99633.22;;;11.39;100.00
21100;BME280;10708;50.824;4.408;2023-03-22T17:21:54;99638.41;;;11.40;100.00
21100;BME280;10708;50.824;4.408;2023-03-22T17:26:58;99627.19;;;11.37;100.00
21100;BME280;10708;50.824;4.408;2023-03-22T17:32:02;99631.59;;;11.36;100.00
21100;BME280;10708;50.824;4.408;2023-03-22T17:37:05;99614.94;;;11.36;100.00
21100;BME280;10708;50.824;4.408;2023-03-22T17:42:12;99622.00;;;11.35;100.00
21100;BME280;10708;50.824;4.408;2023-03-22T17:47:14;99614.94;;;11.36;100.00
21100;BME280;10708;50.824;4.408;2023-03-22T17:52:17;99619.34;;;11.35;100.00
21100;BME280;10708;50.824;4.408;2023-03-22T17:57:21;99603.53;;;11.35;100.00
21100;BME280;10708;50.824;4.408;2023-03-22T18:02:23;99611.44;;;11.35;100.00
21100;BME280;10708;50.824;4.408;2023-03-22T18:07:25;99606.09;;;11.37;100.00
21100;BME280;10708;50.824;4.408;2023-03-22T18:12:29;99604.97;;;11.41;100.00
21100;BME280;10708;50.824;4.408;2023-03-22T18:17:32;99590.63;;;11.46;100.00
21100;BME280;10708;50.824;4.408;2023-03-22T18:22:34;99592.22;;;11.49;100.00
21100;BME280;10708;50.824;4.408;2023-03-22T18:27:38;99596.50;;;11.52;100.00
21100;BME280;10708;50.824;4.408;2023-03-22T18:32:41;99602.38;;;11.57;100.00
21100;BME280;10708;50.824;4.408;2023-03-22T18:37:43;99601.34;;;11.59;100.00
21100;BME280;10708;50.824;4.408;2023-03-22T18:42:49;99589.78;;;11.62;100.00
21100;BME280;10708;50.824;4.408;2023-03-22T18:47:51;99588.41;;;11.70;100.00
21100;BME280;10708;50.824;4.408;2023-03-22T18:52:54;99574.22;;;11.73;100.00
21100;BME280;10708;50.824;4.408;2023-03-22T18:57:57;99572.50;;;11.72;100.00
21100;BME280;10708;50.824;4.408;2023-03-22T19:03:01;99574.38;;;11.70;100.00
21100;BME280;10708;50.824;4.408;2023-03-22T19:08:04;99579.56;;;11.71;100.00
21100;BME280;10708;50.824;4.408;2023-03-22T19:13:08;99575.22;;;11.70;100.00
21100;BME280;10708;50.824;4.408;2023-03-22T19:18:11;99577.22;;;11.67;100.00
21100;BME280;10708;50.824;4.408;2023-03-22T19:23:13;99577.28;;;11.65;100.00
21100;BME280;10708;50.824;4.408;2023-03-22T19:28:17;99564.25;;;11.62;100.00
21100;BME280;10708;50.824;4.408;2023-03-22T19:33:20;99571.59;;;11.57;100.00
21100;BME280;10708;50.824;4.408;2023-03-22T19:38:22;99554.31;;;11.52;100.00
21100;BME280;10708;50.824;4.408;2023-03-22T19:43:26;99572.69;;;11.53;100.00
21100;BME280;10708;50.824;4.408;2023-03-22T19:48:29;99551.81;;;11.48;100.00
21100;BME280;10708;50.824;4.408;2023-03-22T19:53:32;99551.75;;;11.50;100.00
21100;BME280;10708;50.824;4.408;2023-03-22T19:58:39;99529.81;;;11.50;100.00
21100;BME280;10708;50.824;4.408;2023-03-22T20:03:42;99532.53;;;11.48;100.00
21100;BME280;10708;50.824;4.408;2023-03-22T20:08:45;99542.13;;;11.49;100.00
21100;BME280;10708;50.824;4.408;2023-03-22T20:13:49;99533.38;;;11.48;100.00
21100;BME280;10708;50.824;4.408;2023-03-22T20:18:52;99533.13;;;11.53;100.00
21100;BME280;10708;50.824;4.408;2023-03-22T20:23:54;99514.59;;;11.55;100.00
21100;BME280;10708;50.824;4.408;2023-03-22T20:28:58;99509.81;;;11.61;100.00
21100;BME280;10708;50.824;4.408;2023-03-22T20:34:00;99485.84;;;11.66;100.00
21100;BME280;10708;50.824;4.408;2023-03-22T20:39:03;99475.22;;;11.67;100.00
21100;BME280;10708;50.824;4.408;2023-03-22T20:44:08;99488.19;;;11.70;100.00
21100;BME280;10708;50.824;4.408;2023-03-22T20:49:10;99483.59;;;11.74;100.00
21100;BME280;10708;50.824;4.408;2023-03-22T20:54:14;99496.53;;;11.78;100.00
21100;BME280;10708;50.824;4.408;2023-03-22T20:59:18;99490.09;;;11.84;100.00
21100;BME280;10708;50.824;4.408;2023-03-22T21:04:20;99500.19;;;11.92;100.00
21100;BME280;10708;50.824;4.408;2023-03-22T21:09:23;99490.97;;;11.99;100.00
21100;BME280;10708;50.824;4.408;2023-03-22T21:14:27;99483.03;;;11.99;100.00
21100;BME280;10708;50.824;4.408;2023-03-22T21:19:29;99492.19;;;11.93;100.00
21100;BME280;10708;50.824;4.408;2023-03-22T21:24:32;99501.34;;;12.02;100.00
21100;BME280;10708;50.824;4.408;2023-03-22T21:29:36;99490.72;;;12.03;100.00
21100;BME280;10708;50.824;4.408;2023-03-22T21:34:38;99485.06;;;12.09;100.00
21100;BME280;10708;50.824;4.408;2023-03-22T21:39:41;99478.84;;;12.10;100.00
21100;BME280;10708;50.824;4.408;2023-03-22T21:44:45;99475.00;;;12.16;100.00
21100;BME280;10708;50.824;4.408;2023-03-22T21:49:47;99481.78;;;12.20;100.00
21100;BME280;10708;50.824;4.408;2023-03-22T21:54:53;99463.22;;;12.22;100.00
21100;BME280;10708;50.824;4.408;2023-03-22T22:00:00;99471.06;;;12.23;100.00
21100;BME280;10708;50.824;4.408;2023-03-22T22:05:02;99471.13;;;12.22;100.00
21100;BME280;10708;50.824;4.408;2023-03-22T22:10:07;99475.47;;;12.23;100.00
21100;BME280;10708;50.824;4.408;2023-03-22T22:15:11;99468.34;;;12.25;100.00
21100;BME280;10708;50.824;4.408;2023-03-22T22:20:15;99456.16;;;12.22;100.00
21100;BME280;10708;50.824;4.408;2023-03-22T22:25:18;99453.44;;;12.24;100.00
21100;BME280;10708;50.824;4.408;2023-03-22T22:30:22;99449.00;;;12.24;100.00
21100;BME280;10708;50.824;4.408;2023-03-22T22:35:24;99440.91;;;12.27;100.00
21100;BME280;10708;50.824;4.408;2023-03-22T22:40:27;99450.63;;;12.27;100.00
21100;BME280;10708;50.824;4.408;2023-03-22T22:45:31;99440.91;;;12.27;100.00
21100;BME280;10708;50.824;4.408;2023-03-22T22:50:33;99434.47;;;12.31;100.00
21100;BME280;10708;50.824;4.408;2023-03-22T22:55:36;99415.16;;;12.31;100.00
21100;BME280;10708;50.824;4.408;2023-03-22T23:00:39;99423.66;;;12.36;100.00
21100;BME280;10708;50.824;4.408;2023-03-22T23:05:42;99416.69;;;12.35;100.00
21100;BME280;10708;50.824;4.408;2023-03-22T23:10:44;99410.38;;;12.37;100.00
21100;BME280;10708;50.824;4.408;2023-03-22T23:15:53;99401.59;;;12.37;100.00
21100;BME280;10708;50.824;4.408;2023-03-22T23:20:55;99402.31;;;12.39;100.00
21100;BME280;10708;50.824;4.408;2023-03-22T23:26:00;99401.47;;;12.38;100.00
21100;BME280;10708;50.824;4.408;2023-03-22T23:31:08;99398.84;;;12.38;100.00
21100;BME280;10708;50.824;4.408;2023-03-22T23:36:15;99400.44;;;12.41;100.00
21100;BME280;10708;50.824;4.408;2023-03-22T23:41:24;99381.88;;;12.42;100.00
21100;BME280;10708;50.824;4.408;2023-03-22T23:46:28;99371.13;;;12.45;100.00
21100;BME280;10708;50.824;4.408;2023-03-22T23:51:31;99377.19;;;12.47;100.00
21100;BME280;10708;50.824;4.408;2023-03-22T23:56:33;99367.34;;;12.49;100.00
